Aeroporto :
LOGIN :

Iscrizione | Disclaimer

   EN    FR    IT 

 










Sommario :    VFR   VFR Marginale   IFR   IFR Intensivo   IFR Molto Intensivo
Visibilità : 
Base nubi : 
>= 8 km
>= 3000ft
5 / 8 km
1000 / 3000 ft
1500m / 5 km
500 / 1000 ft
800 / 1500m
200 / 500 ft
< 800m
< 200 ft
Simboli :   Temporali  Nebbia  Neve Forte  Precipitazioni Forti  Vento > 20 kt
SIGMETs :   Varie  Temporali  Ghiacco  Turbolenza  Onda orograficha  Ceneri Vulcaniche







- Altitudine del aeroporto : 327 ft
- Codice IATA : BHX
- Carte del aeroporto


EGBB - Birmingham

ULTIMO METAR :
  • 221550Z 21006KT 180V260 9000 -RA SCT008CB BKN048 02/01 Q0998 RESHSN

METARs OBSOLETI :
  • 221520Z 21004KT 160V250 9999 SCT008CB BKN038 03/02 Q0998
  • 221450Z 21005KT 180V240 9999 VCSH SCT008CB BKN042 03/02 Q0998
  • 221420Z 21005KT 9999 VCSH SCT010 BKN037 02/01 Q0998
  • 221350Z 25005KT 210V280 9999 6000E -RA BKN019 03/01 Q0999 RESHSN
  • 221320Z 21005KT 170V240 9999 VCSH FEW018 BKN031CB 04/01 Q0999

TAF TAF EGBB
Valido dal 22 a 12 ore il 23 a 12 ore UTC


221104Z 2212/2312 24008KT 9999 FEW025
TEMPO 2212/2221 3000 SHRASN BKN008
PROB30
TEMPO 2212/2306 1200 SHSN BKN004
BECMG 2304/2307 32010KT
PROB30
TEMPO 2306/2309 4000 -SHRASN
ATIS : +44 121 780 0910
Nessun NOTAM noto per questo aeroporto.
1 SIGMET conosciuto per la FIR London (EGTT) :
 
Turbolenza severa
EGTT SIGMET 02 VALID 221430/221830 EGRR
EGTT LONDON FIR SEV TURB FCST WI N5500 W00530 - N5500 W00400 - N5334 W00245 - N5124 W00151 - N5107 W00402 - N5355 W00530 - N5500 W00530 FL160/400 MOV E 15KT NC=



MetMap, La meteo Aeronautica in un colpo d'occhio ! - Copyright ORBIFLY Dicembre 2007 - Disclaimer

ORBIFLY MET'MAP TEAM :

Programmazione e sviluppo : Alexandra Zaïnal
Concezione e sviluppo : Baudouin d'Aumeries
Co-Programmazione e sviluppo : Marc-Olivier Méhu
Supporto tecnico e logistico : Manuel Goepfert
Aiuto per la traduzione : Arnaldo La Scala

Contatto : metmap@orbifly.com




FONTI E CREDITI :

   NOAA